Time;durP1;ratioP1;P1;durP2;ratioP2;P2;SDS_P1;SDS_P2;PMS_P1;PMS_P2;Temp;Humidity;BMP_temperature;BMP_pressure;BME280_temperature;BME280_humidity;BME280_pressure;Samples;Min_cycle;Max_cycle;Signal;HPM_P1;HPM_P2
2024/02/17 00:01:12;;;;;;;8.50;5.30;;;;;;;11.90;82.60;99234.34;4899946;28;102744;-66
2024/02/17 00:03:41;;;;;;;9.07;5.30;;;;;;;11.90;82.79;99234.34;4902005;28;103557;-67
2024/02/17 00:06:09;;;;;;;9.73;5.10;;;;;;;11.92;82.18;99246.47;4900131;28;104381;-67
2024/02/17 00:08:40;;;;;;;8.48;4.43;;;;;;;11.94;82.31;99246.28;4899699;28;102993;-67
2024/02/17 00:11:08;;;;;;;10.48;4.72;;;;;;;11.96;82.23;99241.69;4886296;28;102762;-69
2024/02/17 00:13:36;;;;;;;6.80;4.00;;;;;;;11.95;82.48;99237.38;4904203;28;102707;-67
2024/02/17 00:16:04;;;;;;;10.35;4.72;;;;;;;11.94;82.61;99247.13;4884317;28;104275;-67
2024/02/17 00:18:32;;;;;;;9.35;4.57;;;;;;;11.99;82.25;99248.50;4901954;28;103119;-66
2024/02/17 00:21:03;;;;;;;6.95;4.03;;;;;;;11.99;82.34;99248.50;4899109;28;103716;-67
2024/02/17 00:23:34;;;;;;;7.53;4.03;;;;;;;12.00;82.68;99251.00;4901295;28;102854;-67
2024/02/17 00:26:02;;;;;;;7.03;4.00;;;;;;;11.96;82.84;99254.97;4904625;28;104231;-67
2024/02/17 00:28:30;;;;;;;7.90;3.60;;;;;;;12.01;82.31;99257.94;4916095;28;104179;-67
2024/02/17 00:30:58;;;;;;;8.88;4.03;;;;;;;12.02;82.54;99261.44;4910839;28;102737;-67
2024/02/17 00:33:26;;;;;;;8.32;4.15;;;;;;;11.87;83.00;99264.69;4903449;28;102781;-67
2024/02/17 00:35:54;;;;;;;7.00;3.30;;;;;;;11.84;83.52;99261.53;4901440;28;104423;-67
2024/02/17 00:38:23;;;;;;;8.30;3.63;;;;;;;11.87;82.97;99261.19;4902033;28;103410;-67
2024/02/17 00:40:51;;;;;;;7.53;3.00;;;;;;;11.90;82.76;99263.53;4900800;28;102732;-67
2024/02/17 00:43:19;;;;;;;7.45;3.05;;;;;;;11.93;82.87;99268.50;4901104;28;104083;-67
2024/02/17 00:45:48;;;;;;;5.32;2.88;;;;;;;11.96;82.32;99268.25;4892446;28;103890;-67
2024/02/17 00:48:17;;;;;;;5.93;2.75;;;;;;;11.96;82.40;99260.28;4895175;28;103347;-67
2024/02/17 00:50:46;;;;;;;4.55;2.63;;;;;;;11.96;82.04;99276.22;4892600;28;102719;-67
2024/02/17 00:53:25;;;;;;;3.70;2.15;;;;;;;11.95;82.37;99274.53;4900894;28;102750;-67
2024/02/17 00:55:53;;;;;;;6.72;3.00;;;;;;;11.78;82.43;99274.44;4898719;28;104223;-67
2024/02/17 00:58:21;;;;;;;3.92;2.28;;;;;;;11.86;82.51;99280.78;4884544;28;104492;-67
2024/02/17 01:00:49;;;;;;;6.43;2.50;;;;;;;11.63;83.56;99276.06;4898912;28;102772;-67
2024/02/17 01:03:17;;;;;;;5.45;2.30;;;;;;;11.74;83.76;99282.91;4898872;28;102720;-67
2024/02/17 01:05:45;;;;;;;4.75;2.30;;;;;;;11.77;83.04;99285.25;4900124;28;103697;-68
2024/02/17 01:08:14;;;;;;;5.90;2.42;;;;;;;11.80;83.03;99292.03;4896197;28;103248;-67
2024/02/17 01:10:43;;;;;;;4.82;2.45;;;;;;;11.83;82.91;99291.72;4902374;28;102714;-66
2024/02/17 01:13:12;;;;;;;5.65;2.60;;;;;;;11.80;83.06;99292.88;4901658;28;102673;-67
2024/02/17 01:15:40;;;;;;;4.65;2.38;;;;;;;11.84;82.74;99298.69;4914325;28;104322;-67
2024/02/17 01:18:08;;;;;;;6.40;2.42;;;;;;;11.83;83.08;99295.22;4901440;28;103187;-67
2024/02/17 01:20:37;;;;;;;4.07;2.13;;;;;;;11.83;82.96;99292.56;4891902;28;102962;-67
2024/02/17 01:23:05;;;;;;;7.45;2.60;;;;;;;11.77;82.96;99295.84;4903060;28;102617;-67
2024/02/17 01:25:33;;;;;;;5.47;2.50;;;;;;;11.76;82.92;99305.66;4902614;28;103239;-67
2024/02/17 01:28:02;;;;;;;5.80;2.30;;;;;;;11.71;83.40;99307.94;4900645;28;103187;-67
2024/02/17 01:30:30;;;;;;;5.25;2.40;;;;;;;11.77;82.87;99304.63;4901113;28;102657;-67
2024/02/17 01:32:58;;;;;;;3.58;1.98;;;;;;;11.79;82.87;99312.47;4897020;28;104094;-68
2024/02/17 01:35:26;;;;;;;3.33;2.10;;;;;;;11.77;82.92;99311.78;4896707;28;104097;-68
2024/02/17 01:37:56;;;;;;;5.78;2.47;;;;;;;11.55;83.85;99313.19;4901906;28;103227;-69
2024/02/17 01:40:27;;;;;;;5.32;2.00;;;;;;;11.71;83.64;99326.53;4897723;28;102719;-68
2024/02/17 01:42:55;;;;;;;4.82;2.40;;;;;;;11.53;83.71;99317.81;4904119;28;104455;-68
2024/02/17 01:45:24;;;;;;;4.85;1.95;;;;;;;11.68;83.33;99326.81;4897044;28;104008;-67
2024/02/17 01:47:53;;;;;;;2.63;1.40;;;;;;;11.71;83.29;99317.72;4899336;28;103192;-67
2024/02/17 01:50:21;;;;;;;4.00;1.60;;;;;;;11.62;83.37;99324.84;4901048;28;102693;-67
2024/02/17 01:52:50;;;;;;;3.50;1.60;;;;;;;11.65;83.54;99332.47;4902131;28;104005;-68
2024/02/17 01:55:19;;;;;;;4.28;1.80;;;;;;;11.61;83.35;99331.13;4898060;28;104241;-71
2024/02/17 01:57:50;;;;;;;3.88;1.45;;;;;;;11.61;83.48;99336.44;4892386;28;103243;-70
2024/02/17 02:00:19;;;;;;;3.30;1.40;;;;;;;11.57;83.71;99330.59;4888281;28;103309;-71
2024/02/17 02:02:49;;;;;;;3.03;1.58;;;;;;;11.39;84.41;99328.03;4887807;28;104186;-71
2024/02/17 02:05:18;;;;;;;2.83;1.50;;;;;;;11.45;84.21;99332.69;4885267;28;103930;-71
2024/02/17 02:07:48;;;;;;;5.45;1.58;;;;;;;11.19;84.65;99342.50;4915848;28;103156;-71
2024/02/17 02:10:16;;;;;;;3.78;1.38;;;;;;;11.30;84.73;99349.38;4900948;28;102821;-70
2024/02/17 02:12:45;;;;;;;3.50;1.38;;;;;;;11.41;83.96;99346.44;4884290;28;104318;-70
2024/02/17 02:15:13;;;;;;;2.70;1.20;;;;;;;11.39;83.69;99354.53;4900194;28;102699;-70
2024/02/17 02:17:41;;;;;;;3.45;1.92;;;;;;;11.21;83.22;99357.25;4897492;28;104308;-71
2024/02/17 02:20:15;;;;;;;3.65;1.70;;;;;;;11.20;82.94;99354.75;4881203;28;102710;-70
2024/02/17 02:22:45;;;;;;;4.35;2.20;;;;;;;11.24;82.99;99358.75;4900094;28;102700;-70
2024/02/17 02:25:24;;;;;;;3.90;2.50;;;;;;;11.31;82.82;99362.47;4900265;28;104409;-70
2024/02/17 02:27:54;;;;;;;3.35;2.67;;;;;;;11.33;82.47;99368.47;4899528;28;103284;-70
2024/02/17 02:30:23;;;;;;;4.00;2.67;;;;;;;11.35;82.32;99371.75;4900532;28;102671;-70
2024/02/17 02:32:57;;;;;;;4.65;3.05;;;;;;;11.28;82.49;99384.00;4892039;28;104220;-71
2024/02/17 02:35:25;;;;;;;5.57;3.20;;;;;;;11.25;82.73;99373.69;4897697;28;104139;-71
2024/02/17 02:37:53;;;;;;;6.00;3.92;;;;;;;11.24;82.45;99382.63;4886640;28;103265;-70
2024/02/17 02:40:21;;;;;;;6.38;4.05;;;;;;;11.25;82.30;99379.84;4898974;28;102968;-70
2024/02/17 02:42:49;;;;;;;8.68;5.75;;;;;;;10.92;82.99;99392.00;4900508;28;102844;-71
2024/02/17 02:45:19;;;;;;;6.43;4.68;;;;;;;10.94;83.46;99392.69;4895452;28;104452;-71
2024/02/17 02:47:50;;;;;;;12.27;6.65;;;;;;;10.98;83.00;99399.34;4877720;28;103223;-71
2024/02/17 02:50:20;;;;;;;7.35;5.55;;;;;;;11.08;82.68;99399.25;4900674;28;102623;-71
2024/02/17 02:52:48;;;;;;;10.00;6.57;;;;;;;10.93;83.04;99407.75;4894705;28;104088;-71
2024/02/17 02:55:16;;;;;;;8.50;6.35;;;;;;;10.92;83.09;99399.97;4904367;28;103343;-71
2024/02/17 02:57:44;;;;;;;9.05;6.30;;;;;;;10.88;82.65;99414.50;4904768;28;103270;-71
2024/02/17 03:00:13;;;;;;;8.13;5.63;;;;;;;10.88;83.03;99409.22;4905422;28;102657;-71
2024/02/17 03:02:42;;;;;;;11.40;8.38;;;;;;;10.54;83.34;99404.59;4900880;28;102839;-71
2024/02/17 03:05:10;;;;;;;13.35;8.82;;;;;;;10.57;83.65;99413.06;4903983;28;103353;-71
2024/02/17 03:07:38;;;;;;;10.32;7.68;;;;;;;10.80;83.80;99417.09;4905109;28;103289;-71
2024/02/17 03:10:07;;;;;;;12.35;9.05;;;;;;;10.66;83.20;99413.16;4898612;28;102965;-71
2024/02/17 03:12:36;;;;;;;12.43;9.27;;;;;;;10.77;83.15;99419.06;4901355;28;103047;-71
2024/02/17 03:15:05;;;;;;;13.63;9.48;;;;;;;10.70;82.88;99411.84;4903173;28;103378;-70
2024/02/17 03:17:33;;;;;;;12.20;9.45;;;;;;;10.81;83.00;99429.34;4907432;28;103256;-70
2024/02/17 03:20:04;;;;;;;13.60;10.10;;;;;;;10.66;82.66;99424.56;4866935;28;103790;-67
2024/02/17 03:22:33;;;;;;;12.52;9.13;;;;;;;10.85;82.45;99428.06;4892249;28;104049;-66
2024/02/17 03:25:01;;;;;;;13.82;9.10;;;;;;;10.78;82.60;99431.31;4903904;28;104860;-67
2024/02/17 03:27:29;;;;;;;11.00;8.23;;;;;;;10.90;82.26;99423.13;4902542;28;103248;-67
2024/02/17 03:29:57;;;;;;;12.68;9.57;;;;;;;10.87;82.39;99428.72;4871173;28;102849;-67
2024/02/17 03:32:26;;;;;;;15.07;10.35;;;;;;;10.75;82.47;99433.44;4899400;28;102770;-67
2024/02/17 03:34:54;;;;;;;13.23;9.68;;;;;;;10.84;82.40;99429.88;4903984;28;103213;-67
2024/02/17 03:37:25;;;;;;;12.60;8.93;;;;;;;10.87;82.05;99444.63;4901244;28;103402;-67
2024/02/17 03:39:54;;;;;;;12.55;9.18;;;;;;;10.71;82.51;99443.50;4898439;28;103834;-67
2024/02/17 03:42:22;;;;;;;12.80;9.45;;;;;;;10.69;82.83;99442.81;4903884;28;104107;-67
2024/02/17 03:44:50;;;;;;;11.20;9.10;;;;;;;10.75;82.78;99451.97;4902756;28;103336;-67
2024/02/17 03:47:18;;;;;;;16.00;11.05;;;;;;;10.56;82.81;99460.91;4904695;28;103204;-68
2024/02/17 03:49:46;;;;;;;13.23;10.13;;;;;;;10.59;83.02;99457.94;4915299;28;102612;-68
2024/02/17 03:52:15;;;;;;;14.43;9.88;;;;;;;10.64;82.60;99461.00;4904466;28;103231;-68
2024/02/17 03:54:44;;;;;;;13.48;9.98;;;;;;;10.65;82.56;99467.97;4903195;28;103397;-68
2024/02/17 03:57:16;;;;;;;13.63;9.77;;;;;;;10.64;83.02;99465.44;4901765;28;103228;-67
2024/02/17 03:59:45;;;;;;;16.45;11.77;;;;;;;10.47;83.44;99465.28;4899888;28;102804;-67
2024/02/17 04:02:12;;;;;;;15.93;12.23;;;;;;;10.59;82.89;99468.53;4902635;28;103862;-68
2024/02/17 04:04:40;;;;;;;17.15;12.43;;;;;;;10.69;83.01;99469.31;4899662;28;104166;-67
2024/02/17 04:07:09;;;;;;;15.23;11.23;;;;;;;10.60;82.91;99483.47;4900047;28;103844;-67
2024/02/17 04:09:37;;;;;;;15.85;12.27;;;;;;;10.65;82.94;99488.28;4900979;28;104227;-67
2024/02/17 04:12:09;;;;;;;20.40;11.25;;;;;;;10.74;82.44;99482.94;4901514;28;104056;-67
2024/02/17 04:14:41;;;;;;;14.98;10.80;;;;;;;10.71;82.60;99488.53;4915839;28;104550;-67
2024/02/17 04:17:09;;;;;;;14.90;11.55;;;;;;;10.72;82.08;99487.56;4901328;28;103653;-70
2024/02/17 04:19:38;;;;;;;12.70;9.35;;;;;;;10.81;81.75;99492.94;4899698;28;102749;-70
2024/02/17 04:22:07;;;;;;;12.48;9.75;;;;;;;10.82;81.28;99491.94;4898481;28;102840;-68
2024/02/17 04:24:35;;;;;;;14.82;10.88;;;;;;;10.70;81.34;99508.09;4901148;28;103022;-67
2024/02/17 04:27:03;;;;;;;14.40;10.90;;;;;;;10.55;82.24;99515.69;4897219;28;103323;-67
2024/02/17 04:29:33;;;;;;;13.77;10.35;;;;;;;10.68;82.07;99522.47;4903692;28;102759;-67
2024/02/17 04:32:00;;;;;;;14.68;10.05;;;;;;;10.73;81.72;99526.31;4878999;28;104496;-67
2024/02/17 04:34:29;;;;;;;13.02;10.10;;;;;;;10.73;81.67;99542.22;4905892;28;104408;-67
2024/02/17 04:36:57;;;;;;;12.98;9.15;;;;;;;10.76;81.29;99541.91;4883543;28;104221;-67
2024/02/17 04:39:25;;;;;;;14.18;11.38;;;;;;;10.64;80.91;99545.75;4897090;28;102723;-67
2024/02/17 04:41:54;;;;;;;12.60;9.38;;;;;;;10.60;81.07;99549.69;4885370;28;102913;-67
2024/02/17 04:44:23;;;;;;;14.10;10.63;;;;;;;10.64;80.72;99561.66;4901250;28;104173;-67
2024/02/17 04:46:52;;;;;;;16.77;12.00;;;;;;;10.58;80.49;99557.75;4899955;28;103453;-67
2024/02/17 04:49:20;;;;;;;14.77;11.15;;;;;;;10.59;80.59;99563.91;4899789;28;102813;-67
2024/02/17 04:51:48;;;;;;;16.67;12.98;;;;;;;10.40;81.25;99564.81;4901569;28;104462;-67
2024/02/17 04:54:16;;;;;;;16.55;11.25;;;;;;;10.50;81.08;99567.44;4896486;28;103014;-67
2024/02/17 04:56:44;;;;;;;19.17;12.63;;;;;;;10.47;81.36;99580.97;4899880;28;103218;-67
2024/02/17 04:59:12;;;;;;;18.17;14.00;;;;;;;10.44;81.08;99585.56;4874184;28;102826;-67
2024/02/17 05:01:44;;;;;;;17.38;13.65;;;;;;;10.47;81.10;99588.91;4863890;28;104223;-67
2024/02/17 05:04:14;;;;;;;19.25;13.77;;;;;;;10.55;81.19;99581.09;4881249;28;104140;-67
2024/02/17 05:06:47;;;;;;;18.48;13.57;;;;;;;10.39;81.17;99590.47;4882924;28;103278;-67
2024/02/17 05:09:18;;;;;;;21.75;15.25;;;;;;;10.39;81.58;99590.47;4862096;28;105156;-67
2024/02/17 05:11:47;;;;;;;18.75;14.40;;;;;;;10.41;81.63;99592.97;4879442;28;102720;-70
2024/02/17 05:14:15;;;;;;;18.30;13.05;;;;;;;10.50;81.48;99594.75;4880081;28;104156;-70
2024/02/17 05:16:44;;;;;;;18.73;14.32;;;;;;;10.52;81.05;99605.19;4877912;28;103236;-70
2024/02/17 05:19:16;;;;;;;19.83;14.70;;;;;;;10.43;81.64;99602.44;4879506;28;103650;-67
2024/02/17 05:21:44;;;;;;;20.58;14.13;;;;;;;10.35;82.09;99612.03;4884679;28;102821;-69
2024/02/17 05:24:13;;;;;;;20.60;15.65;;;;;;;10.27;81.94;99608.31;4888513;28;104604;-68
2024/02/17 05:26:41;;;;;;;22.30;15.73;;;;;;;10.23;81.88;99611.38;4902133;28;103173;-69
2024/02/17 05:29:08;;;;;;;22.42;16.80;;;;;;;10.26;81.86;99619.06;4903056;28;103498;-68
2024/02/17 05:31:36;;;;;;;22.25;14.45;;;;;;;10.34;82.16;99623.66;4900975;28;104064;-69
2024/02/17 05:34:04;;;;;;;21.85;13.40;;;;;;;10.25;82.24;99622.69;4909601;28;104119;-69
2024/02/17 05:36:34;;;;;;;18.00;12.98;;;;;;;10.29;81.93;99629.34;4893640;28;104791;-66
2024/02/17 05:39:02;;;;;;;20.65;15.63;;;;;;;10.04;82.61;99623.69;4896306;28;103056;-66
2024/02/17 05:41:30;;;;;;;19.40;14.60;;;;;;;10.11;83.04;99629.25;4871322;28;104019;-66
2024/02/17 05:43:58;;;;;;;20.38;14.63;;;;;;;10.17;82.38;99638.44;4873159;28;103404;-66
2024/02/17 05:46:27;;;;;;;16.83;12.55;;;;;;;10.10;82.73;99633.72;4881442;28;103370;-66
2024/02/17 05:48:55;;;;;;;20.98;13.57;;;;;;;10.15;82.52;99641.22;4881765;28;103009;-66
2024/02/17 05:51:24;;;;;;;22.75;16.50;;;;;;;10.00;81.92;99638.19;4876252;28;102725;-66
2024/02/17 05:53:56;;;;;;;21.45;14.05;;;;;;;10.12;82.25;99647.63;4879655;28;103441;-66
2024/02/17 05:56:25;;;;;;;20.92;15.68;;;;;;;10.07;82.06;99644.59;4882560;28;103195;-66
2024/02/17 05:58:55;;;;;;;23.08;15.93;;;;;;;10.01;82.47;99655.75;4878815;28;102666;-66
2024/02/17 06:01:25;;;;;;;17.48;13.75;;;;;;;10.07;82.47;99655.19;4870685;28;103869;-66
2024/02/17 06:03:54;;;;;;;19.40;13.02;;;;;;;10.13;81.79;99661.72;4878829;28;103274;-66
2024/02/17 06:06:22;;;;;;;19.42;13.98;;;;;;;10.04;81.43;99676.63;4892743;28;104221;-66
2024/02/17 06:08:51;;;;;;;18.48;13.45;;;;;;;10.08;81.56;99677.19;4856495;28;103793;-65
2024/02/17 06:11:20;;;;;;;20.40;14.40;;;;;;;9.98;81.80;99674.53;4881760;28;102972;-66
2024/02/17 06:13:49;;;;;;;17.52;13.10;;;;;;;9.94;81.72;99678.44;4865580;28;103335;-66
2024/02/17 06:16:18;;;;;;;18.58;12.48;;;;;;;9.92;81.36;99689.16;4866618;28;103254;-65
2024/02/17 06:21:32;;;;;;;17.23;12.55;;;;;;;9.71;81.15;99699.88;4870251;28;102737;-65
2024/02/17 06:24:02;;;;;;;16.70;12.38;;;;;;;9.69;81.07;99701.81;4880439;28;103275;-66
2024/02/17 06:26:35;;;;;;;17.88;11.70;;;;;;;9.71;81.10;99701.72;4880116;28;103196;-65
2024/02/17 06:29:05;;;;;;;17.27;12.23;;;;;;;9.66;81.20;99707.41;4884232;28;102819;-65
2024/02/17 06:31:34;;;;;;;16.20;11.50;;;;;;;9.65;80.85;99708.38;4893873;28;103153;-66
2024/02/17 06:34:07;;;;;;;17.00;11.80;;;;;;;9.57;80.24;99706.41;4848596;28;103240;-66
2024/02/17 06:36:36;;;;;;;16.10;11.88;;;;;;;9.47;80.92;99716.13;4862177;28;104121;-65
2024/02/17 06:39:07;;;;;;;21.10;15.23;;;;;;;9.44;80.75;99727.81;4884201;28;103658;-67
2024/02/17 06:41:37;;;;;;;21.17;15.00;;;;;;;9.50;81.36;99728.25;4887920;28;103149;-66
2024/02/17 06:44:08;;;;;;;16.75;12.43;;;;;;;9.49;80.80;99729.22;4871926;28;104682;-66
2024/02/17 06:46:36;;;;;;;19.05;13.57;;;;;;;9.43;81.18;99736.72;4881953;28;103236;-67
2024/02/17 06:49:05;;;;;;;20.58;12.52;;;;;;;9.50;81.30;99741.47;4884149;28;102708;-67
2024/02/17 06:51:34;;;;;;;20.85;14.98;;;;;;;9.38;81.44;99744.22;4890591;28;103917;-66
2024/02/17 06:54:03;;;;;;;19.08;13.60;;;;;;;9.45;81.25;99750.63;4887804;28;104813;-66
2024/02/17 06:56:32;;;;;;;21.10;14.77;;;;;;;9.50;81.36;99752.03;4886954;28;103211;-67
2024/02/17 06:59:02;;;;;;;20.42;14.52;;;;;;;9.54;81.26;99759.59;4887374;28;102655;-66
2024/02/17 07:01:31;;;;;;;26.85;16.05;;;;;;;9.54;81.03;99761.41;4876100;28;104494;-66
2024/02/17 07:04:00;;;;;;;24.92;16.13;;;;;;;9.53;81.19;99762.38;4870663;28;103685;-66
2024/02/17 07:06:29;;;;;;;21.13;14.93;;;;;;;9.62;80.90;99772.13;4882829;28;103333;-66
2024/02/17 07:08:58;;;;;;;29.65;18.00;;;;;;;9.48;81.33;99773.34;4887156;28;102713;-66
2024/02/17 07:11:26;;;;;;;29.08;19.58;;;;;;;9.55;81.06;99776.28;4889462;28;103990;-66
2024/02/17 07:13:54;;;;;;;29.27;19.38;;;;;;;9.56;80.78;99783.25;4891509;28;103721;-66
2024/02/17 07:16:25;;;;;;;23.30;16.13;;;;;;;9.72;81.00;99782.72;4891928;28;103292;-66
2024/02/17 07:18:57;;;;;;;27.38;16.67;;;;;;;9.72;81.12;99785.38;4879126;28;103120;-66
2024/02/17 07:21:26;;;;;;;22.13;14.00;;;;;;;9.81;80.76;99787.19;4893319;28;103086;-69
2024/02/17 07:23:55;;;;;;;22.83;14.82;;;;;;;9.95;80.53;99793.91;4875981;28;103543;-66
2024/02/17 07:26:24;;;;;;;21.80;14.95;;;;;;;10.03;80.17;99787.94;4879978;28;103074;-66
2024/02/17 07:28:52;;;;;;;20.65;13.90;;;;;;;10.16;80.13;99795.63;4888662;28;103232;-66
2024/02/17 07:31:20;;;;;;;21.33;13.80;;;;;;;10.58;79.10;99790.06;4892659;28;102803;-66
2024/02/17 07:33:53;;;;;;;20.23;14.02;;;;;;;10.54;77.95;99796.63;4889623;28;103931;-67
2024/02/17 07:36:25;;;;;;;20.65;14.80;;;;;;;10.77;77.68;99805.91;4892005;28;103272;-67
2024/02/17 07:38:54;;;;;;;21.13;13.98;;;;;;;10.99;77.52;99803.94;4886840;28;102722;-67
2024/02/17 07:41:22;;;;;;;23.05;15.15;;;;;;;11.07;76.01;99801.41;4893586;28;102777;-69
2024/02/17 07:43:52;;;;;;;18.42;12.98;;;;;;;11.10;76.96;99813.53;4886128;28;103390;-69
2024/02/17 07:46:21;;;;;;;18.90;12.85;;;;;;;11.55;76.00;99815.44;4881720;28;103023;-70
2024/02/17 07:48:52;;;;;;;18.98;12.52;;;;;;;11.87;73.52;99814.16;4889820;28;102818;-70
2024/02/17 07:51:20;;;;;;;20.25;14.50;;;;;;;11.93;72.68;99824.19;4890817;28;102711;-69
2024/02/17 07:53:49;;;;;;;22.17;14.23;;;;;;;11.99;73.08;99833.41;4875790;28;103242;-69
2024/02/17 07:56:17;;;;;;;20.90;13.38;;;;;;;11.62;72.95;99842.25;4891333;28;103247;-69
2024/02/17 07:58:49;;;;;;;21.75;14.40;;;;;;;10.93;75.59;99842.44;4893115;28;103779;-69
2024/02/17 08:01:20;;;;;;;23.58;13.68;;;;;;;11.57;74.83;99849.81;4869150;28;102705;-69
2024/02/17 08:03:50;;;;;;;22.00;15.13;;;;;;;11.86;72.84;99848.81;4878265;28;104265;-70
2024/02/17 08:06:21;;;;;;;19.35;13.90;;;;;;;11.96;72.97;99846.13;4892766;28;103239;-71
2024/02/17 08:08:51;;;;;;;18.83;12.43;;;;;;;12.41;73.14;99855.91;4882761;28;102892;-69
2024/02/17 08:11:19;;;;;;;19.50;14.43;;;;;;;12.58;71.62;99864.84;4897167;28;104628;-69
2024/02/17 08:13:47;;;;;;;20.80;13.00;;;;;;;12.29;72.08;99873.88;4876426;28;103789;-69
2024/02/17 08:16:15;;;;;;;17.75;12.20;;;;;;;12.07;72.95;99868.00;4865764;28;103223;-69
2024/02/17 08:18:45;;;;;;;16.95;12.60;;;;;;;11.93;72.33;99866.66;4871199;28;102790;-69
2024/02/17 08:21:15;;;;;;;16.90;12.15;;;;;;;11.64;74.69;99877.41;4885231;28;102916;-70
2024/02/17 08:23:46;;;;;;;17.58;12.80;;;;;;;11.49;74.00;99884.16;4889654;28;104187;-69
2024/02/17 08:26:17;;;;;;;18.85;12.80;;;;;;;11.51;73.67;99882.22;4888993;28;103254;-68
2024/02/17 08:28:50;;;;;;;19.02;12.82;;;;;;;11.20;74.00;99890.38;4886834;28;102894;-68
2024/02/17 08:31:22;;;;;;;26.08;15.45;;;;;;;10.84;74.31;99891.00;4890851;28;103087;-68
2024/02/17 08:33:51;;;;;;;36.35;19.55;;;;;;;10.70;75.25;99889.63;4887740;28;103257;-68
2024/02/17 08:36:21;;;;;;;35.20;18.20;;;;;;;11.65;73.90;99888.88;4895151;28;103191;-66
2024/02/17 08:38:50;;;;;;;42.47;20.60;;;;;;;11.44;72.86;99901.34;4886947;28;103032;-68
2024/02/17 08:41:21;;;;;;;23.13;14.38;;;;;;;11.26;73.93;99901.25;4875338;28;102695;-67
2024/02/17 08:43:49;;;;;;;18.92;13.38;;;;;;;11.99;71.27;99891.81;4886521;28;103325;-68
2024/02/17 08:46:18;;;;;;;18.42;11.90;;;;;;;12.53;70.75;99894.53;4900461;28;103326;-69
2024/02/17 08:48:47;;;;;;;16.95;11.90;;;;;;;12.69;69.52;99893.84;4864239;28;102745;-68
2024/02/17 08:51:17;;;;;;;22.58;14.13;;;;;;;12.86;68.23;99894.00;4894984;28;102857;-68
2024/02/17 08:53:47;;;;;;;18.70;13.40;;;;;;;12.88;68.83;99897.34;4898746;28;103954;-68
2024/02/17 08:56:17;;;;;;;17.27;12.18;;;;;;;13.28;68.17;99898.63;4898398;28;103202;-69
2024/02/17 08:58:45;;;;;;;17.40;12.10;;;;;;;13.52;67.83;99899.78;4896063;28;102728;-69
2024/02/17 09:01:13;;;;;;;20.90;11.77;;;;;;;13.84;66.49;99903.63;4891803;28;104262;-68
2024/02/17 09:03:45;;;;;;;18.00;13.60;;;;;;;13.65;66.77;99905.53;4882760;28;104168;-68
2024/02/17 09:06:13;;;;;;;21.52;15.00;;;;;;;13.66;66.11;99914.34;4881402;28;103240;-68
2024/02/17 09:08:41;;;;;;;18.80;12.50;;;;;;;13.72;66.03;99914.56;4897774;28;103035;-67
2024/02/17 09:11:10;;;;;;;16.58;12.35;;;;;;;14.05;67.14;99914.69;4874101;28;103855;-68
2024/02/17 09:13:41;;;;;;;15.73;10.60;;;;;;;13.94;67.14;99920.31;4905233;28;104283;-69
2024/02/17 09:16:10;;;;;;;18.13;13.07;;;;;;;13.02;67.74;99926.06;4892509;28;103176;-69
2024/02/17 09:18:38;;;;;;;14.02;10.52;;;;;;;13.00;69.79;99927.19;4907774;28;102721;-68
2024/02/17 09:21:10;;;;;;;17.02;11.40;;;;;;;12.86;69.41;99937.34;4907627;28;104092;-70
2024/02/17 09:23:39;;;;;;;20.75;13.93;;;;;;;11.93;72.66;99945.47;4887824;28;103552;-69
2024/02/17 09:26:10;;;;;;;14.65;10.23;;;;;;;12.23;72.36;99948.84;4889491;28;102698;-67
2024/02/17 09:28:42;;;;;;;17.30;11.75;;;;;;;12.05;70.96;99947.00;4895043;28;102744;-69
2024/02/17 09:31:13;;;;;;;18.75;10.93;;;;;;;11.72;71.30;99965.09;4905228;28;102959;-67
2024/02/17 09:33:41;;;;;;;15.48;11.32;;;;;;;11.02;72.61;99970.66;4904482;28;104182;-67
2024/02/17 09:36:10;;;;;;;16.40;11.43;;;;;;;11.02;71.83;99972.47;4904824;28;104373;-67
2024/02/17 09:38:38;;;;;;;18.27;12.20;;;;;;;11.28;73.29;99970.09;4900865;28;102680;-67
2024/02/17 09:41:09;;;;;;;22.77;12.43;;;;;;;11.21;72.60;99987.53;4908721;28;102745;-67
2024/02/17 09:43:38;;;;;;;16.38;11.52;;;;;;;11.09;73.28;99990.31;4890334;28;103208;-68
2024/02/17 09:46:09;;;;;;;16.48;11.43;;;;;;;11.22;73.89;99994.50;4906949;28;103322;-68
2024/02/17 09:48:37;;;;;;;15.93;11.38;;;;;;;11.42;73.21;99990.88;4896802;28;102772;-67
2024/02/17 09:51:08;;;;;;;19.70;12.80;;;;;;;11.38;73.17;99994.75;4901723;28;104036;-68
2024/02/17 09:53:39;;;;;;;18.98;12.93;;;;;;;11.26;73.20;100006.50;4905160;28;104089;-69
2024/02/17 09:56:08;;;;;;;19.80;12.05;;;;;;;10.64;73.90;100005.88;4899386;28;104247;-69
2024/02/17 09:58:37;;;;;;;14.07;10.60;;;;;;;11.19;74.07;100002.75;4905951;28;102792;-68
2024/02/17 10:01:06;;;;;;;20.23;12.57;;;;;;;11.60;71.66;100006.06;4908541;28;103371;-68
2024/02/17 10:03:39;;;;;;;16.83;12.43;;;;;;;11.31;71.06;100011.41;4921330;28;102996;-69
2024/02/17 10:06:11;;;;;;;19.60;11.98;;;;;;;11.93;71.43;100007.38;4909663;28;103330;-68
2024/02/17 10:08:40;;;;;;;17.33;12.05;;;;;;;11.84;69.05;100010.03;4905065;28;102677;-68
2024/02/17 10:11:16;;;;;;;17.70;11.18;;;;;;;11.52;70.89;100025.31;4904738;28;102571;-67
2024/02/17 10:13:57;;;;;;;16.65;11.32;;;;;;;12.07;68.83;100021.19;4904591;28;103407;-67
2024/02/17 10:16:31;;;;;;;17.00;11.35;;;;;;;11.94;69.66;100026.78;4890381;28;105784;-67
2024/02/17 10:19:03;;;;;;;14.15;10.50;;;;;;;11.42;70.30;100032.47;4911889;28;102753;-68
2024/02/17 10:21:33;;;;;;;16.75;9.65;;;;;;;12.08;69.97;100033.50;4893946;28;104345;-67
2024/02/17 10:24:04;;;;;;;14.15;9.73;;;;;;;11.76;69.45;100024.88;4903148;28;104080;-67
2024/02/17 10:26:34;;;;;;;16.50;9.82;;;;;;;11.69;68.64;100029.06;4906332;28;103159;-68
2024/02/17 10:29:02;;;;;;;15.63;9.32;;;;;;;12.36;67.18;100034.34;4907382;28;102609;-68
2024/02/17 10:31:32;;;;;;;13.60;9.13;;;;;;;12.13;68.98;100027.72;4906291;28;104157;-68
2024/02/17 10:34:03;;;;;;;15.40;8.98;;;;;;;12.64;67.29;100029.00;4906892;28;103447;-68
2024/02/17 10:36:32;;;;;;;21.10;9.73;;;;;;;13.43;65.75;100034.66;4891176;28;103107;-68
2024/02/17 10:39:01;;;;;;;14.27;8.20;;;;;;;13.67;64.34;100026.00;4895456;28;102729;-67
2024/02/17 10:41:31;;;;;;;13.25;7.93;;;;;;;13.21;63.97;100025.28;4885874;28;103998;-67
2024/02/17 10:44:04;;;;;;;12.85;7.82;;;;;;;12.59;65.25;100031.31;4896599;28;103727;-68
2024/02/17 10:46:38;;;;;;;;;;;;;;;11.92;66.41;100034.03;4891244;28;104535;-67
2024/02/17 10:49:12;;;;;;;15.32;8.40;;;;;;;11.81;67.91;100042.19;4895376;28;102673;-67
2024/02/17 10:51:52;;;;;;;15.02;9.13;;;;;;;12.08;68.12;100039.63;4896269;28;102848;-68
2024/02/17 10:54:33;;;;;;;16.00;8.75;;;;;;;12.48;67.09;100040.28;4892783;28;104184;-67
2024/02/17 10:57:08;;;;;;;13.52;8.60;;;;;;;12.13;66.57;100043.66;4897477;28;103024;-68
2024/02/17 10:59:40;;;;;;;14.43;9.02;;;;;;;12.87;67.34;100039.25;4880592;28;103181;-68
2024/02/17 11:02:12;;;;;;;12.27;8.15;;;;;;;13.35;62.57;100039.84;4886232;28;103949;-68
2024/02/17 11:04:44;;;;;;;12.48;7.70;;;;;;;13.16;64.73;100039.03;4914454;28;104146;-68
2024/02/17 11:07:13;;;;;;;11.57;6.63;;;;;;;12.89;62.54;100048.75;4903522;28;104383;-68
2024/02/17 11:09:41;;;;;;;13.13;7.03;;;;;;;13.19;62.49;100048.53;4904432;28;103475;-69
2024/02/17 11:12:32;;;;;;;11.55;6.82;;;;;;;13.59;61.93;100049.91;4911472;28;103131;-69
2024/02/17 11:15:02;;;;;;;11.45;7.15;;;;;;;13.74;63.05;100044.84;4900011;28;103302;-70
2024/02/17 11:17:36;;;;;;;13.00;6.63;;;;;;;13.19;63.44;100045.88;4900073;28;103173;-69
2024/02/17 11:20:07;;;;;;;12.43;6.60;;;;;;;12.63;64.49;100045.97;4891431;28;102721;-68
2024/02/17 11:22:37;;;;;;;12.55;6.88;;;;;;;12.75;64.87;100047.44;4899986;28;102829;-69
2024/02/17 11:25:11;;;;;;;11.88;6.80;;;;;;;12.29;65.63;100049.22;4880841;28;103295;-69
2024/02/17 11:27:42;;;;;;;12.93;7.63;;;;;;;12.26;65.46;100052.13;4889220;28;104193;-68